»·PEaware :: WAT295 KRDD-M90

WAT295 :: KRDD-M90

FLIGHT INFORMATION

Flight Status: Arrived
Operator:
Walker Air Transport
More flights by this operator :: More flights under this callsign
Pilot: Corentin D. (28157)
Aircraft: BEECH AIRCRAFT BONANZA
(BE36)
More flights by this aircraft type
Origin: KRDD Redding Mun
United States
Destination: M90 William Robert Johnson Mun
United States
More flights between these airports :: More routes between these airports
Route: +
File this flight plan on PilotEdge
Remarks:
Altitude:
(Current/Filed)
5,500ft
Speed:
(Current/Filed)
0kts
Departed: 02-Sep-20 03:24 PM
Arrived: 02-Sep-20 05:01 PM
Distance/Time
Traveled:
242nm/1:37
Distance/Time
To Go:
Arrived

Flight Plot

Page will automatically refresh every two minutes.

Flight plan parsing failed; only flown route is shown


Map Options




Map Legend


Flown Route
Filed Route
Departure Airport
Arrival Airport
Navaid (VOR, NDB)
Fix

Horizontal Profiles

Position Reports

Time Latitude Longitude Heading Altitude Ground
Speed
02-Sep-20 15:11 40.509897 -122.297843 176 501ft 0kts
02-Sep-20 15:12 40.509897 -122.297843 176 501ft 0kts
02-Sep-20 15:13 40.509685 -122.297877 189 501ft 7kts
02-Sep-20 15:14 40.508034 -122.298629 179 501ft 6kts
02-Sep-20 15:15 40.507922 -122.298627 175 501ft 0kts
02-Sep-20 15:16 40.508887 -122.296533 53 503ft 18kts
02-Sep-20 15:17 40.513278 -122.296317 0 502ft 17kts
02-Sep-20 15:18 40.518128 -122.296319 359 506ft 13kts
02-Sep-20 15:19 40.520190 -122.296058 64 510ft 0kts
02-Sep-20 15:20 40.520192 -122.296054 64 510ft 0kts
02-Sep-20 15:21 40.520192 -122.296054 64 510ft 0kts
02-Sep-20 15:22 40.520261 -122.295364 99 509ft 11kts
02-Sep-20 15:23 40.507390 -122.294973 183 660ft 100kts
02-Sep-20 15:24 40.476380 -122.286778 172 1773ft 118kts
02-Sep-20 15:25 40.443446 -122.280752 174 2966ft 122kts
02-Sep-20 15:26 40.410849 -122.274681 173 3976ft 125kts
02-Sep-20 15:27 40.376001 -122.266957 159 4947ft 129kts
02-Sep-20 15:28 40.340577 -122.248804 162 5485ft 152kts
02-Sep-20 15:29 40.298535 -122.229336 162 5495ft 162kts
02-Sep-20 15:30 40.256325 -122.230278 196 5496ft 158kts
02-Sep-20 15:31 40.213184 -122.237271 177 5499ft 159kts
02-Sep-20 15:32 40.169187 -122.229373 173 5498ft 159kts
02-Sep-20 15:33 40.125339 -122.221124 173 5499ft 159kts
02-Sep-20 15:34 40.087815 -122.214119 173 5499ft 159kts
02-Sep-20 15:36 40.044112 -122.205972 173 5500ft 159kts
02-Sep-20 15:37 40.000019 -122.197764 173 5499ft 159kts
02-Sep-20 15:38 39.956469 -122.189665 173 5500ft 159kts
02-Sep-20 15:39 39.912553 -122.181508 173 5499ft 159kts
02-Sep-20 15:40 39.868541 -122.173347 173 5500ft 159kts
02-Sep-20 15:41 39.824577 -122.165203 173 5500ft 159kts
02-Sep-20 15:42 39.781557 -122.157245 173 5499ft 159kts
02-Sep-20 15:43 39.736578 -122.148936 173 5497ft 160kts
02-Sep-20 15:44 39.692474 -122.148352 185 5499ft 159kts
02-Sep-20 15:45 39.649929 -122.133545 168 5499ft 160kts
02-Sep-20 15:46 39.605945 -122.124792 173 5499ft 159kts
02-Sep-20 15:47 39.562844 -122.116937 173 5500ft 159kts
02-Sep-20 15:48 39.521212 -122.109297 173 5499ft 159kts
02-Sep-20 15:49 39.477547 -122.101290 173 5500ft 159kts
02-Sep-20 15:50 39.434041 -122.093320 172 5500ft 159kts
02-Sep-20 15:51 39.390754 -122.084812 178 5500ft 159kts
02-Sep-20 15:52 39.347656 -122.077950 176 5500ft 159kts
02-Sep-20 15:52 39.311123 -122.074021 176 5500ft 159kts
02-Sep-20 15:53 39.266867 -122.069313 176 5499ft 159kts
02-Sep-20 15:55 39.218342 -122.054660 167 5498ft 160kts
02-Sep-20 15:55 39.182209 -122.047282 173 5499ft 159kts
02-Sep-20 15:56 39.138153 -122.039406 173 5499ft 159kts
02-Sep-20 15:58 39.087096 -122.030151 173 5499ft 159kts
02-Sep-20 15:58 39.052313 -122.013479 152 5500ft 161kts
02-Sep-20 15:59 39.013679 -121.984625 151 5500ft 161kts
02-Sep-20 16:00 38.974833 -121.955819 151 5500ft 161kts
02-Sep-20 16:01 38.935996 -121.927080 151 5499ft 161kts
02-Sep-20 16:02 38.898930 -121.899682 151 5500ft 161kts
02-Sep-20 16:03 38.858511 -121.876669 158 5499ft 161kts
02-Sep-20 16:04 38.820257 -121.856061 158 5499ft 161kts
02-Sep-20 16:05 38.785122 -121.817740 141 5500ft 162kts
02-Sep-20 16:06 38.746856 -121.787511 151 5500ft 161kts
02-Sep-20 16:07 38.708710 -121.759589 151 5498ft 161kts
02-Sep-20 16:08 38.670436 -121.731521 151 5499ft 161kts
02-Sep-20 16:09 38.632273 -121.703565 151 5500ft 161kts
02-Sep-20 16:10 38.590301 -121.685654 178 5500ft 159kts
02-Sep-20 16:11 38.557939 -121.653560 141 5501ft 161kts
02-Sep-20 16:12 38.520310 -121.626136 158 5498ft 160kts
02-Sep-20 16:13 38.479172 -121.604157 158 5500ft 161kts
02-Sep-20 16:14 38.437913 -121.581900 157 5500ft 161kts
02-Sep-20 16:15 38.399042 -121.555300 114 5500ft 162kts
02-Sep-20 16:16 38.370757 -121.513501 146 5499ft 162kts
02-Sep-20 16:17 38.331953 -121.484625 151 5500ft 161kts
02-Sep-20 16:18 38.293243 -121.456652 151 5500ft 162kts
02-Sep-20 16:19 38.254170 -121.428375 151 5497ft 161kts
02-Sep-20 16:20 38.216302 -121.401001 151 5499ft 161kts
02-Sep-20 16:21 38.179616 -121.374506 151 5499ft 161kts
02-Sep-20 16:22 38.140756 -121.346481 151 5499ft 160kts
02-Sep-20 16:23 38.101840 -121.318451 151 5501ft 161kts
02-Sep-20 16:24 38.062768 -121.290341 151 5500ft 161kts
02-Sep-20 16:25 38.023559 -121.262170 151 5500ft 161kts
02-Sep-20 16:26 37.986912 -121.235862 151 5499ft 161kts
02-Sep-20 16:27 37.949529 -121.209067 151 5500ft 161kts
02-Sep-20 16:28 37.915758 -121.183577 143 5500ft 162kts
02-Sep-20 16:29 37.880254 -121.148323 143 5500ft 162kts
02-Sep-20 16:30 37.844681 -121.114091 151 5500ft 161kts
02-Sep-20 16:31 37.803029 -121.096526 168 5503ft 159kts
02-Sep-20 16:32 37.761770 -121.075213 152 5500ft 161kts
02-Sep-20 16:33 37.722667 -121.047133 151 5500ft 161kts
02-Sep-20 16:34 37.683486 -121.019260 151 5499ft 161kts
02-Sep-20 16:35 37.644257 -120.991440 153 5498ft 161kts
02-Sep-20 16:36 37.605874 -120.971114 140 5499ft 161kts
02-Sep-20 16:37 37.569487 -120.938154 152 5499ft 161kts
02-Sep-20 16:38 37.529056 -120.915146 170 5500ft 160kts
02-Sep-20 16:39 37.492855 -120.884437 148 5500ft 161kts
02-Sep-20 16:40 37.454205 -120.856884 152 5500ft 161kts
02-Sep-20 16:41 37.414938 -120.829256 152 5500ft 161kts
02-Sep-20 16:42 37.374349 -120.805494 149 5497ft 161kts
02-Sep-20 16:43 37.336896 -120.774115 152 5498ft 161kts
02-Sep-20 16:44 37.298414 -120.747289 152 5500ft 161kts
02-Sep-20 16:45 37.256963 -120.726425 161 5500ft 161kts
02-Sep-20 16:46 37.220870 -120.692837 150 5500ft 162kts
02-Sep-20 16:47 37.181595 -120.665402 152 5500ft 161kts
02-Sep-20 16:48 37.142225 -120.637915 152 5499ft 161kts
02-Sep-20 16:49 37.103833 -120.611100 152 5500ft 162kts
02-Sep-20 16:50 37.064515 -120.583682 152 5499ft 161kts
02-Sep-20 16:51 37.025230 -120.556315 152 5499ft 161kts
02-Sep-20 16:52 36.985839 -120.528909 152 5500ft 161kts
02-Sep-20 16:53 36.946641 -120.501663 152 5500ft 161kts
02-Sep-20 16:54 36.908088 -120.474916 152 5101ft 150kts
02-Sep-20 16:55 36.871917 -120.449827 152 3097ft 147kts
02-Sep-20 16:56 36.834412 -120.423840 151 1109ft 133kts
02-Sep-20 16:57 36.809135 -120.398373 141 1130ft 113kts
02-Sep-20 16:58 36.785096 -120.382263 163 628ft 93kts
02-Sep-20 16:59 36.765505 -120.374280 166 229ft 73kts
02-Sep-20 17:00 36.757210 -120.371906 230 170ft 10kts
02-Sep-20 17:01 36.757135 -120.372400 328 169ft 0kts
02-Sep-20 17:02 36.757135 -120.372400 328 169ft 0kts
02-Sep-20 17:03 36.757135 -120.372400 328 169ft 0kts
02-Sep-20 17:04 36.757135 -120.372400 328 169ft 0kts
02-Sep-20 17:05 36.757135 -120.372400 328 169ft 0kts
02-Sep-20 17:06 36.757135 -120.372400 328 169ft 0kts

Navigation Log

Ident Type
Flight plan parsing failed, navigation log unavailable